sensor_id;sensor_type;location;lat;lon;timestamp;temperature;humidity
11501;DHT22;5807;51.606;7.624;2022-12-24T00:01:36;11.10;99.90
11501;DHT22;5807;51.606;7.624;2022-12-24T00:04:03;10.60;99.90
11501;DHT22;5807;51.606;7.624;2022-12-24T00:06:30;10.60;99.90
11501;DHT22;5807;51.606;7.624;2022-12-24T00:08:59;10.40;99.90
11501;DHT22;5807;51.606;7.624;2022-12-24T00:11:26;10.40;99.90
11501;DHT22;5807;51.606;7.624;2022-12-24T00:13:52;10.40;99.90
11501;DHT22;5807;51.606;7.624;2022-12-24T00:16:19;10.30;99.90
11501;DHT22;5807;51.606;7.624;2022-12-24T00:18:46;10.10;99.90
11501;DHT22;5807;51.606;7.624;2022-12-24T00:21:13;10.00;99.90
11501;DHT22;5807;51.606;7.624;2022-12-24T00:23:40;10.00;99.90
11501;DHT22;5807;51.606;7.624;2022-12-24T00:26:09;9.90;99.90
11501;DHT22;5807;51.606;7.624;2022-12-24T00:28:35;9.90;99.90
11501;DHT22;5807;51.606;7.624;2022-12-24T00:31:07;9.70;99.90
11501;DHT22;5807;51.606;7.624;2022-12-24T00:33:34;9.90;99.90
11501;DHT22;5807;51.606;7.624;2022-12-24T00:36:01;10.60;99.90
11501;DHT22;5807;51.606;7.624;2022-12-24T00:38:27;9.70;99.90
11501;DHT22;5807;51.606;7.624;2022-12-24T00:40:57;9.80;99.90
11501;DHT22;5807;51.606;7.624;2022-12-24T00:43:26;9.70;99.90
11501;DHT22;5807;51.606;7.624;2022-12-24T00:45:53;9.70;99.90
11501;DHT22;5807;51.606;7.624;2022-12-24T00:48:20;9.50;99.90
11501;DHT22;5807;51.606;7.624;2022-12-24T00:50:48;9.30;99.90
11501;DHT22;5807;51.606;7.624;2022-12-24T00:53:17;9.70;99.90
11501;DHT22;5807;51.606;7.624;2022-12-24T00:55:44;9.70;99.90
11501;DHT22;5807;51.606;7.624;2022-12-24T01:00:39;9.80;99.90
11501;DHT22;5807;51.606;7.624;2022-12-24T01:03:06;9.90;99.90
11501;DHT22;5807;51.606;7.624;2022-12-24T01:05:33;9.80;99.90
11501;DHT22;5807;51.606;7.624;2022-12-24T01:07:59;9.90;99.90
11501;DHT22;5807;51.606;7.624;2022-12-24T01:10:25;10.00;99.90
11501;DHT22;5807;51.606;7.624;2022-12-24T01:12:52;10.00;99.90
11501;DHT22;5807;51.606;7.624;2022-12-24T01:15:19;10.10;99.90
11501;DHT22;5807;51.606;7.624;2022-12-24T01:17:47;11.10;99.90
11501;DHT22;5807;51.606;7.624;2022-12-24T01:20:15;10.20;99.90
11501;DHT22;5807;51.606;7.624;2022-12-24T01:22:42;10.20;99.90
11501;DHT22;5807;51.606;7.624;2022-12-24T01:25:09;10.10;99.90
11501;DHT22;5807;51.606;7.624;2022-12-24T01:27:36;10.30;99.90
11501;DHT22;5807;51.606;7.624;2022-12-24T01:30:05;10.20;99.90
11501;DHT22;5807;51.606;7.624;2022-12-24T01:32:32;10.20;99.90
11501;DHT22;5807;51.606;7.624;2022-12-24T01:35:00;10.30;99.90
11501;DHT22;5807;51.606;7.624;2022-12-24T01:37:27;10.10;99.90
11501;DHT22;5807;51.606;7.624;2022-12-24T01:39:54;10.20;99.90
11501;DHT22;5807;51.606;7.624;2022-12-24T01:42:44;10.50;99.90
11501;DHT22;5807;51.606;7.624;2022-12-24T01:45:42;10.40;99.90
11501;DHT22;5807;51.606;7.624;2022-12-24T01:48:15;10.30;99.90
11501;DHT22;5807;51.606;7.624;2022-12-24T01:50:44;10.70;99.90
11501;DHT22;5807;51.606;7.624;2022-12-24T01:53:13;10.10;99.90
11501;DHT22;5807;51.606;7.624;2022-12-24T01:55:41;10.10;99.90
11501;DHT22;5807;51.606;7.624;2022-12-24T01:58:10;10.50;99.90
11501;DHT22;5807;51.606;7.624;2022-12-24T02:00:37;10.00;99.90
11501;DHT22;5807;51.606;7.624;2022-12-24T02:03:04;10.10;99.90
11501;DHT22;5807;51.606;7.624;2022-12-24T02:05:35;10.00;99.90
11501;DHT22;5807;51.606;7.624;2022-12-24T02:08:07;10.80;99.90
11501;DHT22;5807;51.606;7.624;2022-12-24T02:10:34;10.10;99.90
11501;DHT22;5807;51.606;7.624;2022-12-24T02:13:02;10.20;99.90
11501;DHT22;5807;51.606;7.624;2022-12-24T02:15:36;10.20;99.90
11501;DHT22;5807;51.606;7.624;2022-12-24T02:18:11;10.80;99.90
11501;DHT22;5807;51.606;7.624;2022-12-24T02:21:19;10.20;99.90
11501;DHT22;5807;51.606;7.624;2022-12-24T02:24:08;10.30;99.90
11501;DHT22;5807;51.606;7.624;2022-12-24T02:27:09;10.70;99.90
11501;DHT22;5807;51.606;7.624;2022-12-24T02:30:09;10.30;99.90
11501;DHT22;5807;51.606;7.624;2022-12-24T02:32:47;10.20;99.90
11501;DHT22;5807;51.606;7.624;2022-12-24T02:35:22;10.30;99.90
11501;DHT22;5807;51.606;7.624;2022-12-24T02:37:53;10.00;99.90
11501;DHT22;5807;51.606;7.624;2022-12-24T02:40:25;10.00;99.90
11501;DHT22;5807;51.606;7.624;2022-12-24T02:42:55;9.90;99.90
11501;DHT22;5807;51.606;7.624;2022-12-24T02:45:28;9.60;99.90
11501;DHT22;5807;51.606;7.624;2022-12-24T02:47:56;9.60;99.90
11501;DHT22;5807;51.606;7.624;2022-12-24T02:50:24;9.70;99.90
11501;DHT22;5807;51.606;7.624;2022-12-24T02:52:51;10.00;99.90
11501;DHT22;5807;51.606;7.624;2022-12-24T02:55:21;11.00;99.90
11501;DHT22;5807;51.606;7.624;2022-12-24T02:58:09;9.90;99.90
11501;DHT22;5807;51.606;7.624;2022-12-24T03:00:46;10.00;99.90
11501;DHT22;5807;51.606;7.624;2022-12-24T03:03:29;9.90;99.90
11501;DHT22;5807;51.606;7.624;2022-12-24T03:06:01;9.80;99.90
11501;DHT22;5807;51.606;7.624;2022-12-24T03:08:41;9.80;99.90
11501;DHT22;5807;51.606;7.624;2022-12-24T03:11:11;10.70;99.90
11501;DHT22;5807;51.606;7.624;2022-12-24T03:13:39;10.40;99.90
11501;DHT22;5807;51.606;7.624;2022-12-24T03:16:11;9.80;99.90
11501;DHT22;5807;51.606;7.624;2022-12-24T03:18:42;9.80;99.90
11501;DHT22;5807;51.606;7.624;2022-12-24T03:21:12;9.90;99.90
11501;DHT22;5807;51.606;7.624;2022-12-24T03:23:40;9.90;99.90
11501;DHT22;5807;51.606;7.624;2022-12-24T03:26:10;9.60;99.90
11501;DHT22;5807;51.606;7.624;2022-12-24T03:28:39;9.30;99.90
11501;DHT22;5807;51.606;7.624;2022-12-24T03:31:08;9.70;99.90
11501;DHT22;5807;51.606;7.624;2022-12-24T03:33:37;10.10;99.90
11501;DHT22;5807;51.606;7.624;2022-12-24T03:36:06;9.80;99.90
11501;DHT22;5807;51.606;7.624;2022-12-24T03:38:33;9.90;99.90
11501;DHT22;5807;51.606;7.624;2022-12-24T03:41:00;9.60;99.90
11501;DHT22;5807;51.606;7.624;2022-12-24T03:43:27;9.80;99.90
11501;DHT22;5807;51.606;7.624;2022-12-24T03:45:54;10.00;99.90
11501;DHT22;5807;51.606;7.624;2022-12-24T03:50:49;9.70;99.90
11501;DHT22;5807;51.606;7.624;2022-12-24T03:53:16;10.20;99.90
11501;DHT22;5807;51.606;7.624;2022-12-24T03:55:43;9.50;99.90
11501;DHT22;5807;51.606;7.624;2022-12-24T03:58:10;9.70;99.90
11501;DHT22;5807;51.606;7.624;2022-12-24T04:00:37;9.80;99.90
11501;DHT22;5807;51.606;7.624;2022-12-24T04:03:03;10.70;99.90
11501;DHT22;5807;51.606;7.624;2022-12-24T04:05:32;9.40;99.90
11501;DHT22;5807;51.606;7.624;2022-12-24T04:07:59;9.80;99.90
11501;DHT22;5807;51.606;7.624;2022-12-24T04:10:25;9.80;99.90
11501;DHT22;5807;51.606;7.624;2022-12-24T04:12:52;9.90;99.90
11501;DHT22;5807;51.606;7.624;2022-12-24T04:15:31;10.10;99.90
11501;DHT22;5807;51.606;7.624;2022-12-24T04:17:58;10.00;99.90
11501;DHT22;5807;51.606;7.624;2022-12-24T04:20:25;9.90;99.90
11501;DHT22;5807;51.606;7.624;2022-12-24T04:22:53;10.80;99.90
11501;DHT22;5807;51.606;7.624;2022-12-24T04:25:20;10.00;99.90
11501;DHT22;5807;51.606;7.624;2022-12-24T04:30:14;10.10;99.90
11501;DHT22;5807;51.606;7.624;2022-12-24T04:32:41;10.00;99.90
11501;DHT22;5807;51.606;7.624;2022-12-24T04:35:08;10.00;99.90
11501;DHT22;5807;51.606;7.624;2022-12-24T04:37:35;10.10;99.90
11501;DHT22;5807;51.606;7.624;2022-12-24T04:40:04;10.10;99.90
11501;DHT22;5807;51.606;7.624;2022-12-24T04:42:31;10.10;99.90
11501;DHT22;5807;51.606;7.624;2022-12-24T04:44:58;10.10;99.90
11501;DHT22;5807;51.606;7.624;2022-12-24T04:47:25;10.00;99.90
11501;DHT22;5807;51.606;7.624;2022-12-24T04:49:51;10.10;99.90
11501;DHT22;5807;51.606;7.624;2022-12-24T04:52:18;10.20;99.90
11501;DHT22;5807;51.606;7.624;2022-12-24T04:54:45;10.10;99.90
11501;DHT22;5807;51.606;7.624;2022-12-24T04:57:13;10.10;99.90
11501;DHT22;5807;51.606;7.624;2022-12-24T04:59:40;10.10;99.90
11501;DHT22;5807;51.606;7.624;2022-12-24T05:02:07;10.20;99.90
11501;DHT22;5807;51.606;7.624;2022-12-24T05:04:34;10.10;99.90
11501;DHT22;5807;51.606;7.624;2022-12-24T05:07:01;10.30;99.90
11501;DHT22;5807;51.606;7.624;2022-12-24T05:09:28;10.60;99.90
11501;DHT22;5807;51.606;7.624;2022-12-24T05:11:55;11.00;99.90
11501;DHT22;5807;51.606;7.624;2022-12-24T05:14:23;10.20;99.90
11501;DHT22;5807;51.606;7.624;2022-12-24T05:16:50;10.20;99.90
11501;DHT22;5807;51.606;7.624;2022-12-24T05:19:16;10.30;99.90
11501;DHT22;5807;51.606;7.624;2022-12-24T05:21:43;10.30;99.90
11501;DHT22;5807;51.606;7.624;2022-12-24T05:24:30;10.20;99.90
11501;DHT22;5807;51.606;7.624;2022-12-24T05:27:14;10.20;99.90
11501;DHT22;5807;51.606;7.624;2022-12-24T05:29:43;10.20;99.90
11501;DHT22;5807;51.606;7.624;2022-12-24T05:32:09;10.20;99.90
11501;DHT22;5807;51.606;7.624;2022-12-24T05:34:36;10.20;99.90
11501;DHT22;5807;51.606;7.624;2022-12-24T05:37:03;10.60;99.90
11501;DHT22;5807;51.606;7.624;2022-12-24T05:39:33;10.50;99.90
11501;DHT22;5807;51.606;7.624;2022-12-24T05:42:00;10.30;99.90
11501;DHT22;5807;51.606;7.624;2022-12-24T05:44:27;10.20;99.90
11501;DHT22;5807;51.606;7.624;2022-12-24T05:46:55;10.20;99.90
11501;DHT22;5807;51.606;7.624;2022-12-24T05:49:22;10.40;99.90
11501;DHT22;5807;51.606;7.624;2022-12-24T05:51:48;10.30;99.90
11501;DHT22;5807;51.606;7.624;2022-12-24T05:54:15;10.90;99.90
11501;DHT22;5807;51.606;7.624;2022-12-24T05:56:42;10.30;99.90
11501;DHT22;5807;51.606;7.624;2022-12-24T05:59:09;10.30;99.90
11501;DHT22;5807;51.606;7.624;2022-12-24T06:04:04;10.40;99.90
11501;DHT22;5807;51.606;7.624;2022-12-24T06:06:31;10.20;99.90
11501;DHT22;5807;51.606;7.624;2022-12-24T06:08:58;10.10;99.90
11501;DHT22;5807;51.606;7.624;2022-12-24T06:11:26;10.00;99.90
11501;DHT22;5807;51.606;7.624;2022-12-24T06:13:53;10.00;99.90
11501;DHT22;5807;51.606;7.624;2022-12-24T06:16:22;9.90;99.90
11501;DHT22;5807;51.606;7.624;2022-12-24T06:18:49;10.20;99.90
11501;DHT22;5807;51.606;7.624;2022-12-24T06:21:17;10.00;99.90
11501;DHT22;5807;51.606;7.624;2022-12-24T06:23:46;10.00;99.90
11501;DHT22;5807;51.606;7.624;2022-12-24T06:26:16;9.70;99.90
11501;DHT22;5807;51.606;7.624;2022-12-24T06:28:44;10.50;99.90
11501;DHT22;5807;51.606;7.624;2022-12-24T06:31:12;10.30;99.90
11501;DHT22;5807;51.606;7.624;2022-12-24T06:33:39;9.80;99.90
11501;DHT22;5807;51.606;7.624;2022-12-24T06:36:08;9.80;99.90
11501;DHT22;5807;51.606;7.624;2022-12-24T06:38:36;9.80;99.90
11501;DHT22;5807;51.606;7.624;2022-12-24T06:41:21;9.80;99.90
11501;DHT22;5807;51.606;7.624;2022-12-24T06:43:49;9.90;99.90
11501;DHT22;5807;51.606;7.624;2022-12-24T06:46:17;10.20;99.90
11501;DHT22;5807;51.606;7.624;2022-12-24T06:48:46;9.90;99.90
11501;DHT22;5807;51.606;7.624;2022-12-24T06:51:14;10.10;99.90
11501;DHT22;5807;51.606;7.624;2022-12-24T06:53:45;9.70;99.90
11501;DHT22;5807;51.606;7.624;2022-12-24T06:56:12;10.30;99.90
11501;DHT22;5807;51.606;7.624;2022-12-24T06:58:39;9.80;99.90
11501;DHT22;5807;51.606;7.624;2022-12-24T07:01:09;10.20;99.90
11501;DHT22;5807;51.606;7.624;2022-12-24T07:03:37;9.80;99.90
11501;DHT22;5807;51.606;7.624;2022-12-24T07:06:04;9.90;99.90
11501;DHT22;5807;51.606;7.624;2022-12-24T07:08:32;9.90;99.90
11501;DHT22;5807;51.606;7.624;2022-12-24T07:11:02;9.90;99.90
11501;DHT22;5807;51.606;7.624;2022-12-24T07:13:28;10.00;99.90
11501;DHT22;5807;51.606;7.624;2022-12-24T07:15:57;10.10;99.90
11501;DHT22;5807;51.606;7.624;2022-12-24T07:18:24;10.00;99.90
11501;DHT22;5807;51.606;7.624;2022-12-24T07:23:18;10.10;99.90
11501;DHT22;5807;51.606;7.624;2022-12-24T07:25:44;10.00;99.90
11501;DHT22;5807;51.606;7.624;2022-12-24T07:28:13;10.10;99.90
11501;DHT22;5807;51.606;7.624;2022-12-24T07:30:41;11.40;99.90
11501;DHT22;5807;51.606;7.624;2022-12-24T07:33:07;9.80;99.90
11501;DHT22;5807;51.606;7.624;2022-12-24T07:35:34;10.20;99.90
11501;DHT22;5807;51.606;7.624;2022-12-24T07:38:01;10.90;99.90
11501;DHT22;5807;51.606;7.624;2022-12-24T07:40:28;10.30;99.90
11501;DHT22;5807;51.606;7.624;2022-12-24T07:42:55;10.40;99.90
11501;DHT22;5807;51.606;7.624;2022-12-24T07:45:23;10.30;99.90
11501;DHT22;5807;51.606;7.624;2022-12-24T07:47:51;10.40;99.90
11501;DHT22;5807;51.606;7.624;2022-12-24T07:50:18;10.30;99.90
11501;DHT22;5807;51.606;7.624;2022-12-24T07:52:45;10.30;99.90
11501;DHT22;5807;51.606;7.624;2022-12-24T07:55:12;10.30;99.90
11501;DHT22;5807;51.606;7.624;2022-12-24T07:57:38;12.00;99.90
11501;DHT22;5807;51.606;7.624;2022-12-24T08:00:07;10.30;99.90
11501;DHT22;5807;51.606;7.624;2022-12-24T08:02:36;10.60;99.90
11501;DHT22;5807;51.606;7.624;2022-12-24T08:05:04;10.40;99.90
11501;DHT22;5807;51.606;7.624;2022-12-24T08:07:31;10.60;99.90
11501;DHT22;5807;51.606;7.624;2022-12-24T08:09:58;10.40;99.90
11501;DHT22;5807;51.606;7.624;2022-12-24T08:12:24;10.30;99.90
11501;DHT22;5807;51.606;7.624;2022-12-24T08:14:51;10.30;99.90
11501;DHT22;5807;51.606;7.624;2022-12-24T08:17:18;10.30;99.90
11501;DHT22;5807;51.606;7.624;2022-12-24T08:19:46;10.40;99.90
11501;DHT22;5807;51.606;7.624;2022-12-24T08:22:15;10.60;99.90
11501;DHT22;5807;51.606;7.624;2022-12-24T08:24:42;10.50;99.90
11501;DHT22;5807;51.606;7.624;2022-12-24T08:27:08;10.50;99.90
11501;DHT22;5807;51.606;7.624;2022-12-24T08:32:08;10.60;99.90
11501;DHT22;5807;51.606;7.624;2022-12-24T08:34:35;10.80;99.90
11501;DHT22;5807;51.606;7.624;2022-12-24T08:37:04;10.60;99.90
11501;DHT22;5807;51.606;7.624;2022-12-24T08:39:30;10.60;99.90
11501;DHT22;5807;51.606;7.624;2022-12-24T08:41:57;10.60;99.90
11501;DHT22;5807;51.606;7.624;2022-12-24T08:44:24;10.70;99.90
11501;DHT22;5807;51.606;7.624;2022-12-24T08:46:51;10.60;99.90
11501;DHT22;5807;51.606;7.624;2022-12-24T08:49:18;10.50;99.90
11501;DHT22;5807;51.606;7.624;2022-12-24T08:51:45;10.60;99.90
11501;DHT22;5807;51.606;7.624;2022-12-24T08:54:13;10.80;99.90
11501;DHT22;5807;51.606;7.624;2022-12-24T08:56:40;10.60;99.90
11501;DHT22;5807;51.606;7.624;2022-12-24T08:59:06;10.70;99.90
11501;DHT22;5807;51.606;7.624;2022-12-24T09:01:33;10.80;99.90
11501;DHT22;5807;51.606;7.624;2022-12-24T09:04:00;10.90;99.90
11501;DHT22;5807;51.606;7.624;2022-12-24T09:06:27;11.60;99.90
11501;DHT22;5807;51.606;7.624;2022-12-24T09:08:54;10.20;99.90
11501;DHT22;5807;51.606;7.624;2022-12-24T09:11:24;10.90;99.90
11501;DHT22;5807;51.606;7.624;2022-12-24T09:13:51;10.90;99.90
11501;DHT22;5807;51.606;7.624;2022-12-24T09:16:20;11.40;99.90
11501;DHT22;5807;51.606;7.624;2022-12-24T09:18:46;11.40;99.90
11501;DHT22;5807;51.606;7.624;2022-12-24T09:21:15;10.90;99.90
11501;DHT22;5807;51.606;7.624;2022-12-24T09:23:43;11.00;99.90
11501;DHT22;5807;51.606;7.624;2022-12-24T09:26:13;11.90;99.90
11501;DHT22;5807;51.606;7.624;2022-12-24T09:31:09;10.90;99.90
11501;DHT22;5807;51.606;7.624;2022-12-24T09:33:38;11.00;99.90
11501;DHT22;5807;51.606;7.624;2022-12-24T09:36:06;11.10;99.90
11501;DHT22;5807;51.606;7.624;2022-12-24T09:38:33;11.00;99.90
11501;DHT22;5807;51.606;7.624;2022-12-24T09:41:02;11.30;99.90
11501;DHT22;5807;51.606;7.624;2022-12-24T09:43:36;11.30;99.90
11501;DHT22;5807;51.606;7.624;2022-12-24T09:46:11;11.20;99.90
11501;DHT22;5807;51.606;7.624;2022-12-24T09:48:42;11.40;99.90
11501;DHT22;5807;51.606;7.624;2022-12-24T09:51:25;11.60;99.90
11501;DHT22;5807;51.606;7.624;2022-12-24T09:53:56;11.90;99.90
11501;DHT22;5807;51.606;7.624;2022-12-24T09:56:27;11.70;99.90
11501;DHT22;5807;51.606;7.624;2022-12-24T09:58:57;11.50;99.90
11501;DHT22;5807;51.606;7.624;2022-12-24T10:01:28;11.40;99.90
11501;DHT22;5807;51.606;7.624;2022-12-24T10:03:56;11.30;99.90
11501;DHT22;5807;51.606;7.624;2022-12-24T10:06:29;11.30;99.90
11501;DHT22;5807;51.606;7.624;2022-12-24T10:09:10;11.20;99.90
11501;DHT22;5807;51.606;7.624;2022-12-24T10:11:44;11.10;99.90
11501;DHT22;5807;51.606;7.624;2022-12-24T10:14:21;11.20;99.90
11501;DHT22;5807;51.606;7.624;2022-12-24T10:16:57;11.50;99.90
11501;DHT22;5807;51.606;7.624;2022-12-24T10:19:36;11.30;99.90
11501;DHT22;5807;51.606;7.624;2022-12-24T10:22:15;11.70;99.90
11501;DHT22;5807;51.606;7.624;2022-12-24T10:24:49;11.20;99.90
11501;DHT22;5807;51.606;7.624;2022-12-24T10:27:22;10.70;99.90
11501;DHT22;5807;51.606;7.624;2022-12-24T10:30:00;11.70;99.90
11501;DHT22;5807;51.606;7.624;2022-12-24T10:32:31;12.90;99.90
11501;DHT22;5807;51.606;7.624;2022-12-24T10:35:00;12.10;99.90
11501;DHT22;5807;51.606;7.624;2022-12-24T10:37:29;12.30;99.90
11501;DHT22;5807;51.606;7.624;2022-12-24T10:39:58;12.00;99.90
11501;DHT22;5807;51.606;7.624;2022-12-24T10:42:33;12.10;99.90
11501;DHT22;5807;51.606;7.624;2022-12-24T10:45:04;12.10;99.90
11501;DHT22;5807;51.606;7.624;2022-12-24T10:47:33;11.40;99.90
11501;DHT22;5807;51.606;7.624;2022-12-24T10:50:04;11.70;99.90
11501;DHT22;5807;51.606;7.624;2022-12-24T10:52:38;11.70;99.90
11501;DHT22;5807;51.606;7.624;2022-12-24T10:55:09;11.80;99.90
11501;DHT22;5807;51.606;7.624;2022-12-24T10:57:38;11.70;99.90
11501;DHT22;5807;51.606;7.624;2022-12-24T11:00:06;12.60;99.90
11501;DHT22;5807;51.606;7.624;2022-12-24T11:02:46;12.30;99.90
11501;DHT22;5807;51.606;7.624;2022-12-24T11:05:27;12.10;99.90
11501;DHT22;5807;51.606;7.624;2022-12-24T11:07:58;12.00;99.90
11501;DHT22;5807;51.606;7.624;2022-12-24T11:10:25;12.20;99.90
11501;DHT22;5807;51.606;7.624;2022-12-24T11:12:52;12.40;99.90
11501;DHT22;5807;51.606;7.624;2022-12-24T12:43:28;11.40;99.90
11501;DHT22;5807;51.606;7.624;2022-12-24T12:46:04;11.30;99.90
11501;DHT22;5807;51.606;7.624;2022-12-24T12:48:52;11.40;99.90
11501;DHT22;5807;51.606;7.624;2022-12-24T12:51:25;11.60;99.90
11501;DHT22;5807;51.606;7.624;2022-12-24T12:54:07;11.40;99.90
11501;DHT22;5807;51.606;7.624;2022-12-24T12:56:41;12.40;99.90
11501;DHT22;5807;51.606;7.624;2022-12-24T12:59:14;11.50;99.90
11501;DHT22;5807;51.606;7.624;2022-12-24T13:01:48;11.60;99.90
11501;DHT22;5807;51.606;7.624;2022-12-24T13:04:40;11.70;99.90
11501;DHT22;5807;51.606;7.624;2022-12-24T13:13:46;12.20;99.90
11501;DHT22;5807;51.606;7.624;2022-12-24T13:19:28;12.10;99.90
11501;DHT22;5807;51.606;7.624;2022-12-24T13:22:00;12.20;99.90
11501;DHT22;5807;51.606;7.624;2022-12-24T13:24:29;12.20;99.90
11501;DHT22;5807;51.606;7.624;2022-12-24T13:27:01;11.90;99.90
11501;DHT22;5807;51.606;7.624;2022-12-24T13:29:40;11.70;99.90
11501;DHT22;5807;51.606;7.624;2022-12-24T13:32:36;11.50;99.90
11501;DHT22;5807;51.606;7.624;2022-12-24T13:35:24;11.50;99.90
11501;DHT22;5807;51.606;7.624;2022-12-24T13:37:52;11.50;99.90
11501;DHT22;5807;51.606;7.624;2022-12-24T13:40:22;11.40;99.90
11501;DHT22;5807;51.606;7.624;2022-12-24T13:42:51;11.30;99.90
11501;DHT22;5807;51.606;7.624;2022-12-24T13:45:46;11.30;99.90
11501;DHT22;5807;51.606;7.624;2022-12-24T13:48:31;12.20;99.90
11501;DHT22;5807;51.606;7.624;2022-12-24T13:51:23;11.50;99.90
11501;DHT22;5807;51.606;7.624;2022-12-24T13:53:57;11.50;99.90
11501;DHT22;5807;51.606;7.624;2022-12-24T13:56:25;11.50;99.90
11501;DHT22;5807;51.606;7.624;2022-12-24T13:59:08;11.40;99.90
11501;DHT22;5807;51.606;7.624;2022-12-24T14:01:40;11.70;99.90
11501;DHT22;5807;51.606;7.624;2022-12-24T14:04:09;11.40;99.90
11501;DHT22;5807;51.606;7.624;2022-12-24T14:06:48;11.20;99.90
11501;DHT22;5807;51.606;7.624;2022-12-24T14:09:18;11.30;99.90
11501;DHT22;5807;51.606;7.624;2022-12-24T14:12:14;11.00;99.90
11501;DHT22;5807;51.606;7.624;2022-12-24T14:14:42;11.00;99.90
11501;DHT22;5807;51.606;7.624;2022-12-24T14:17:19;10.70;99.90
11501;DHT22;5807;51.606;7.624;2022-12-24T14:19:49;10.70;99.90
11501;DHT22;5807;51.606;7.624;2022-12-24T14:22:25;10.60;99.90
11501;DHT22;5807;51.606;7.624;2022-12-24T14:24:55;11.60;99.90
11501;DHT22;5807;51.606;7.624;2022-12-24T14:27:28;10.40;99.90
11501;DHT22;5807;51.606;7.624;2022-12-24T14:30:01;10.40;99.90
11501;DHT22;5807;51.606;7.624;2022-12-24T14:32:35;10.50;99.90
11501;DHT22;5807;51.606;7.624;2022-12-24T14:35:08;10.40;99.90
11501;DHT22;5807;51.606;7.624;2022-12-24T14:37:37;11.50;99.90
11501;DHT22;5807;51.606;7.624;2022-12-24T14:40:06;10.10;99.90
11501;DHT22;5807;51.606;7.624;2022-12-24T14:42:40;10.30;99.90
11501;DHT22;5807;51.606;7.624;2022-12-24T14:45:17;9.90;99.90
11501;DHT22;5807;51.606;7.624;2022-12-24T14:47:58;10.50;99.90
11501;DHT22;5807;51.606;7.624;2022-12-24T14:50:47;10.20;99.90
11501;DHT22;5807;51.606;7.624;2022-12-24T14:53:32;9.90;99.90
11501;DHT22;5807;51.606;7.624;2022-12-24T14:56:08;9.90;99.90
11501;DHT22;5807;51.606;7.624;2022-12-24T14:58:39;9.80;99.90
11501;DHT22;5807;51.606;7.624;2022-12-24T15:01:19;9.70;99.90
11501;DHT22;5807;51.606;7.624;2022-12-24T15:03:59;9.60;99.90
11501;DHT22;5807;51.606;7.624;2022-12-24T15:06:26;10.30;99.90
11501;DHT22;5807;51.606;7.624;2022-12-24T15:08:54;9.40;99.90
11501;DHT22;5807;51.606;7.624;2022-12-24T15:11:22;9.40;99.90
11501;DHT22;5807;51.606;7.624;2022-12-24T15:13:52;10.20;99.90
11501;DHT22;5807;51.606;7.624;2022-12-24T15:16:22;9.60;99.90
11501;DHT22;5807;51.606;7.624;2022-12-24T15:18:53;9.50;99.90
11501;DHT22;5807;51.606;7.624;2022-12-24T15:21:24;9.40;99.90
11501;DHT22;5807;51.606;7.624;2022-12-24T15:23:53;9.50;99.90
11501;DHT22;5807;51.606;7.624;2022-12-24T15:26:23;9.20;99.90
11501;DHT22;5807;51.606;7.624;2022-12-24T15:28:53;10.10;99.90
11501;DHT22;5807;51.606;7.624;2022-12-24T15:31:21;8.90;99.90
11501;DHT22;5807;51.606;7.624;2022-12-24T15:33:51;8.80;99.90
11501;DHT22;5807;51.606;7.624;2022-12-24T15:36:26;8.80;99.90
11501;DHT22;5807;51.606;7.624;2022-12-24T15:38:56;10.00;99.90
11501;DHT22;5807;51.606;7.624;2022-12-24T15:41:25;8.90;99.90
11501;DHT22;5807;51.606;7.624;2022-12-24T15:43:53;9.00;99.90
11501;DHT22;5807;51.606;7.624;2022-12-24T15:46:26;9.00;99.90
11501;DHT22;5807;51.606;7.624;2022-12-24T15:48:56;9.20;99.90
11501;DHT22;5807;51.606;7.624;2022-12-24T15:51:28;9.00;99.90
11501;DHT22;5807;51.606;7.624;2022-12-24T15:53:58;9.00;99.90
11501;DHT22;5807;51.606;7.624;2022-12-24T15:56:36;9.00;99.90
11501;DHT22;5807;51.606;7.624;2022-12-24T15:59:26;9.00;99.90
11501;DHT22;5807;51.606;7.624;2022-12-24T16:01:55;9.60;99.90
11501;DHT22;5807;51.606;7.624;2022-12-24T16:04:25;10.10;99.90
11501;DHT22;5807;51.606;7.624;2022-12-24T16:06:56;9.10;99.90
11501;DHT22;5807;51.606;7.624;2022-12-24T16:09:40;8.90;99.90
11501;DHT22;5807;51.606;7.624;2022-12-24T16:12:18;8.80;99.90
11501;DHT22;5807;51.606;7.624;2022-12-24T16:14:49;8.90;99.90
11501;DHT22;5807;51.606;7.624;2022-12-24T16:17:19;8.60;99.90
11501;DHT22;5807;51.606;7.624;2022-12-24T16:19:50;8.90;99.90
11501;DHT22;5807;51.606;7.624;2022-12-24T16:25:01;8.30;99.90
11501;DHT22;5807;51.606;7.624;2022-12-24T16:27:40;8.10;99.90
11501;DHT22;5807;51.606;7.624;2022-12-24T16:40:00;8.00;99.90
11501;DHT22;5807;51.606;7.624;2022-12-24T16:42:27;7.80;99.90
11501;DHT22;5807;51.606;7.624;2022-12-24T16:45:11;7.90;99.90
11501;DHT22;5807;51.606;7.624;2022-12-24T17:09:57;7.90;99.90
11501;DHT22;5807;51.606;7.624;2022-12-24T17:12:24;7.90;99.90
11501;DHT22;5807;51.606;7.624;2022-12-24T17:17:21;7.70;99.90
11501;DHT22;5807;51.606;7.624;2022-12-24T17:19:49;8.80;99.90
11501;DHT22;5807;51.606;7.624;2022-12-24T17:22:15;8.80;99.90
11501;DHT22;5807;51.606;7.624;2022-12-24T17:24:44;9.10;99.90
11501;DHT22;5807;51.606;7.624;2022-12-24T17:27:11;7.60;99.90
11501;DHT22;5807;51.606;7.624;2022-12-24T17:29:38;7.60;99.90
11501;DHT22;5807;51.606;7.624;2022-12-24T17:32:05;7.60;99.90
11501;DHT22;5807;51.606;7.624;2022-12-24T17:34:32;7.50;99.90
11501;DHT22;5807;51.606;7.624;2022-12-24T17:36:59;8.00;99.90
11501;DHT22;5807;51.606;7.624;2022-12-24T17:39:26;7.20;99.90
11501;DHT22;5807;51.606;7.624;2022-12-24T17:44:21;7.30;99.90
11501;DHT22;5807;51.606;7.624;2022-12-24T17:46:49;6.90;99.90
11501;DHT22;5807;51.606;7.624;2022-12-24T17:49:16;6.90;99.90
11501;DHT22;5807;51.606;7.624;2022-12-24T17:51:43;6.80;99.90
11501;DHT22;5807;51.606;7.624;2022-12-24T17:54:11;6.60;99.90
11501;DHT22;5807;51.606;7.624;2022-12-24T17:56:38;6.30;99.90
11501;DHT22;5807;51.606;7.624;2022-12-24T17:59:06;6.30;99.90
11501;DHT22;5807;51.606;7.624;2022-12-24T18:04:01;6.00;99.90
11501;DHT22;5807;51.606;7.624;2022-12-24T18:08:56;6.00;99.90
11501;DHT22;5807;51.606;7.624;2022-12-24T18:11:24;5.90;99.90
11501;DHT22;5807;51.606;7.624;2022-12-24T18:13:52;6.70;99.90
11501;DHT22;5807;51.606;7.624;2022-12-24T18:16:24;5.50;99.90
11501;DHT22;5807;51.606;7.624;2022-12-24T18:31:11;5.30;99.90
11501;DHT22;5807;51.606;7.624;2022-12-24T18:36:08;4.80;99.90
11501;DHT22;5807;51.606;7.624;2022-12-24T18:38:35;6.10;99.90
11501;DHT22;5807;51.606;7.624;2022-12-24T18:48:24;5.20;99.90
11501;DHT22;5807;51.606;7.624;2022-12-24T18:51:15;6.40;99.90
11501;DHT22;5807;51.606;7.624;2022-12-24T18:53:42;5.00;99.90
11501;DHT22;5807;51.606;7.624;2022-12-24T18:56:11;4.80;99.90
11501;DHT22;5807;51.606;7.624;2022-12-24T18:58:38;4.70;99.90
11501;DHT22;5807;51.606;7.624;2022-12-24T19:06:03;4.70;99.90
11501;DHT22;5807;51.606;7.624;2022-12-24T19:08:32;4.60;99.90
11501;DHT22;5807;51.606;7.624;2022-12-24T19:10:58;4.00;99.90
11501;DHT22;5807;51.606;7.624;2022-12-24T19:13:25;4.30;99.90
11501;DHT22;5807;51.606;7.624;2022-12-24T19:15:52;4.30;99.90
11501;DHT22;5807;51.606;7.624;2022-12-24T19:18:19;4.30;99.90
11501;DHT22;5807;51.606;7.624;2022-12-24T19:20:46;4.40;99.90